createdAt,value
2023-02-06T04:53:19.218Z,-4.98
2023-02-06T04:56:21.678Z,-5.24
2023-02-06T04:59:23.852Z,-5.36
2023-02-06T05:02:26.338Z,-5.13
2023-02-06T05:05:28.640Z,-4.98
2023-02-06T05:08:31.224Z,-5.03
2023-02-06T05:11:33.599Z,-5.03
2023-02-06T05:14:36.009Z,-5.08
2023-02-06T05:17:38.383Z,-5.08
2023-02-06T05:20:41.337Z,-5.30
2023-02-06T05:23:43.498Z,-5.28
2023-02-06T05:26:46.549Z,-5.18
2023-02-06T05:29:48.672Z,-5.35
2023-02-06T05:32:51.268Z,-5.22
2023-02-06T05:35:53.546Z,-5.27
2023-02-06T05:38:55.968Z,-5.27
2023-02-06T05:41:58.110Z,-5.26
2023-02-06T05:45:00.752Z,-5.45
2023-02-06T05:48:03.118Z,-5.56
2023-02-06T05:51:05.773Z,-5.53
2023-02-06T05:54:07.961Z,-5.58
2023-02-06T05:57:11.837Z,-5.34
2023-02-06T06:00:14.767Z,-5.24
2023-02-06T06:03:17.276Z,-5.14
2023-02-06T06:06:19.579Z,-5.38
2023-02-06T06:09:22.207Z,-5.36
2023-02-06T06:12:24.354Z,-5.18
2023-02-06T06:15:26.953Z,-5.01
2023-02-06T06:18:29.049Z,-5.10
2023-02-06T06:21:31.413Z,-5.11
2023-02-06T06:24:33.623Z,-5.10
2023-02-06T06:27:35.986Z,-5.13
2023-02-06T06:30:38.299Z,-5.23
2023-02-06T06:33:41.594Z,-5.23
2023-02-06T06:36:43.755Z,-4.93
2023-02-06T06:39:46.182Z,-4.81
2023-02-06T06:42:48.288Z,-4.87
2023-02-06T06:45:51.019Z,-4.82
2023-02-06T06:48:53.266Z,-4.91
2023-02-06T06:51:55.671Z,-4.75
2023-02-06T06:54:58.340Z,-4.59
2023-02-06T06:58:01.033Z,-4.47
2023-02-06T07:01:03.266Z,-4.35
2023-02-06T07:04:05.734Z,-4.30
2023-02-06T07:07:08.028Z,-4.09
2023-02-06T07:10:12.139Z,-4.14
2023-02-06T07:13:15.550Z,-4.01
2023-02-06T07:16:18.121Z,-3.86
2023-02-06T07:19:21.313Z,-3.90
2023-02-06T07:22:25.475Z,-3.93
2023-02-06T07:25:27.917Z,-3.87
2023-02-06T07:28:31.757Z,-3.80
2023-02-06T07:31:33.873Z,-3.97
2023-02-06T07:34:36.579Z,-4.01
2023-02-06T07:37:38.787Z,-3.92
2023-02-06T07:40:45.438Z,-3.65
2023-02-06T07:43:48.047Z,-3.63
2023-02-06T07:46:52.001Z,-3.40
2023-02-06T07:49:54.087Z,-3.15
2023-02-06T07:52:56.751Z,-3.08
2023-02-06T07:55:59.026Z,-2.98
2023-02-06T07:59:01.616Z,-2.71
2023-02-06T08:02:03.821Z,-2.40
2023-02-06T08:05:06.585Z,-2.02
2023-02-06T08:08:10.621Z,-1.61
2023-02-06T08:11:16.132Z,-1.22
2023-02-06T08:14:18.235Z,-0.76
2023-02-06T08:17:21.268Z,-0.67
2023-02-06T08:20:23.680Z,-0.68
2023-02-06T08:23:27.405Z,-0.51
2023-02-06T08:26:30.760Z,-0.41
2023-02-06T08:29:40.314Z,-0.47
2023-02-06T08:32:42.456Z,-0.41
2023-02-06T08:35:44.881Z,-0.19
2023-02-06T08:38:47.701Z,-0.17
2023-02-06T08:41:50.120Z,0.04
2023-02-06T08:44:53.697Z,0.29
2023-02-06T08:47:56.082Z,0.39
2023-02-06T08:51:03.187Z,0.32
2023-02-06T08:54:08.580Z,0.39
2023-02-06T08:57:12.907Z,0.51
2023-02-06T09:00:16.388Z,0.52
2023-02-06T09:03:18.547Z,0.64
2023-02-06T09:06:21.040Z,0.92
2023-02-06T09:09:23.424Z,0.83
2023-02-06T09:12:25.914Z,0.96
2023-02-06T09:15:28.222Z,1.05
2023-02-06T09:18:30.747Z,0.74
2023-02-06T09:21:35.138Z,0.47
2023-02-06T09:24:38.086Z,0.78
2023-02-06T09:27:40.370Z,0.90
2023-02-06T09:30:42.813Z,0.93
2023-02-06T09:33:44.992Z,0.89
2023-02-06T09:36:47.390Z,1.09
2023-02-06T09:39:49.492Z,1.25
2023-02-06T09:42:53.469Z,1.33
2023-02-06T09:46:00.214Z,1.48
2023-02-06T09:49:12.342Z,1.42
2023-02-06T09:52:50.890Z,1.11
2023-02-06T09:56:12.641Z,1.08
2023-02-06T09:59:26.972Z,1.02
2023-02-06T10:03:06.799Z,1.25
2023-02-06T10:06:09.435Z,1.02
2023-02-06T10:09:16.535Z,0.85
2023-02-06T10:12:41.379Z,0.72
2023-02-06T10:15:47.109Z,0.76
2023-02-06T10:18:54.570Z,0.82
2023-02-06T10:22:04.880Z,1.07
2023-02-06T10:25:24.918Z,1.03
2023-02-06T10:28:33.420Z,1.09
2023-02-06T10:31:53.946Z,1.22
2023-02-06T10:35:21.727Z,1.07
2023-02-06T10:38:35.200Z,0.80
2023-02-06T10:42:14.119Z,1.01
2023-02-06T10:45:22.408Z,1.22
2023-02-06T10:49:05.779Z,1.12
2023-02-06T10:52:27.510Z,1.27
2023-02-06T10:55:49.167Z,1.42
2023-02-06T10:58:59.260Z,1.23
2023-02-06T11:02:11.790Z,1.32
2023-02-06T11:05:20.189Z,1.40
2023-02-06T11:08:29.780Z,1.25
2023-02-06T11:11:38.075Z,1.33
2023-02-06T11:14:40.794Z,1.41
2023-02-06T11:17:44.828Z,1.18
2023-02-06T11:20:49.016Z,0.91
2023-02-06T11:24:09.092Z,0.85
2023-02-06T11:27:20.572Z,1.04
2023-02-06T11:30:31.995Z,1.17
2023-02-06T11:33:46.753Z,1.35
2023-02-06T11:36:55.833Z,1.56
2023-02-06T11:40:16.680Z,1.45
2023-02-06T11:43:22.811Z,1.51
2023-02-06T11:46:27.517Z,1.20
2023-02-06T11:49:33.102Z,1.19
2023-02-06T11:52:39.940Z,1.22
2023-02-06T11:55:43.793Z,1.37
2023-02-06T11:58:46.514Z,1.47
2023-02-06T12:01:49.315Z,1.42
2023-02-06T12:05:02.326Z,1.55
2023-02-06T12:08:11.671Z,1.35
2023-02-06T12:11:25.757Z,1.73
2023-02-06T12:14:31.852Z,1.71
2023-02-06T12:17:39.931Z,1.57
2023-02-06T12:20:50.810Z,1.58
2023-02-06T12:24:01.531Z,1.73
2023-02-06T12:27:16.967Z,2.11
2023-02-06T12:30:31.481Z,2.15
2023-02-06T12:33:47.849Z,2.12
2023-02-06T12:37:10.806Z,2.29
2023-02-06T12:40:47.887Z,2.46
2023-02-06T12:43:57.261Z,2.04
2023-02-06T12:47:07.467Z,2.22
2023-02-06T12:50:19.045Z,1.80
2023-02-06T12:53:27.104Z,2.03
2023-02-06T12:57:11.724Z,2.04
2023-02-06T13:00:45.800Z,1.91
2023-02-06T13:03:55.867Z,1.79
2023-02-06T13:07:05.159Z,1.88
2023-02-06T13:10:08.618Z,1.95
2023-02-06T13:13:33.081Z,1.94
2023-02-06T13:16:48.755Z,2.00
2023-02-06T13:20:14.339Z,1.93
2023-02-06T13:23:16.991Z,1.69
2023-02-06T13:26:26.714Z,1.79
2023-02-06T13:29:38.911Z,1.96
2023-02-06T13:32:45.375Z,2.01
2023-02-06T13:36:06.847Z,2.08
2023-02-06T13:39:31.225Z,1.88
2023-02-06T13:42:43.814Z,1.88
2023-02-06T13:45:59.290Z,2.03
2023-02-06T13:49:11.851Z,2.01
2023-02-06T13:52:31.911Z,1.87
2023-02-06T13:55:47.720Z,1.99
2023-02-06T13:58:55.316Z,2.05
2023-02-06T14:02:03.296Z,1.86
2023-02-06T14:05:16.917Z,1.98
2023-02-06T14:08:48.224Z,1.93
2023-02-06T14:12:35.566Z,1.93
2023-02-06T14:15:58.700Z,1.94
2023-02-06T14:19:42.513Z,1.83
2023-02-06T14:22:55.018Z,1.65
2023-02-06T14:26:21.959Z,1.70
2023-02-06T14:29:45.743Z,1.67
2023-02-06T14:33:15.623Z,1.61
2023-02-06T14:36:30.114Z,1.58
2023-02-06T14:39:35.550Z,1.61
2023-02-06T14:42:41.256Z,1.55
2023-02-06T14:46:05.540Z,1.56
2023-02-06T14:49:16.367Z,1.51
2023-02-06T14:52:24.161Z,1.34
2023-02-06T14:55:36.360Z,1.41
2023-02-06T14:58:39.090Z,1.46
2023-02-06T15:01:43.511Z,1.34
2023-02-06T15:04:47.453Z,1.29
2023-02-06T15:07:57.487Z,1.15
2023-02-06T15:11:02.443Z,1.18
2023-02-06T15:14:18.718Z,1.17
2023-02-06T15:17:22.995Z,1.08
2023-02-06T15:20:40.200Z,1.04
2023-02-06T15:23:49.967Z,0.92
2023-02-06T15:27:14.463Z,0.85
2023-02-06T15:30:25.072Z,0.90
2023-02-06T15:33:30.580Z,0.76
2023-02-06T15:36:36.726Z,0.72
2023-02-06T15:39:40.447Z,0.68
2023-02-06T15:42:43.509Z,0.66
2023-02-06T15:45:47.368Z,0.59
2023-02-06T15:48:52.137Z,0.56
2023-02-06T15:51:55.070Z,0.64
2023-02-06T15:54:59.450Z,0.64
2023-02-06T15:58:04.641Z,0.57
2023-02-06T16:01:15.714Z,0.63
2023-02-06T16:04:29.242Z,0.61
2023-02-06T16:07:35.646Z,0.61
2023-02-06T16:10:39.894Z,0.66
2023-02-06T16:13:45.733Z,0.60
2023-02-06T16:17:22.505Z,0.48
2023-02-06T16:20:32.465Z,0.38
2023-02-06T16:24:17.449Z,0.45
2023-02-06T16:27:25.503Z,0.41
2023-02-06T16:30:31.984Z,0.31
2023-02-06T16:34:03.183Z,0.41
2023-02-06T16:37:12.263Z,0.47
2023-02-06T16:40:14.380Z,0.47
2023-02-06T16:43:16.765Z,0.34
